x

Georgian Bay (45137) Wave Buoy

8:00pm - Sun 2nd Aug 2015 All times are CDT. -5 hours from GMT.

  • Sig Wave height 2.0ft
  • Peak Period 4s
  • Wind
    11mph, 16mph gusts
  • Sea Temp 64°f
  • Air Temp 65°f
  • Sea Pressure 1001.6mb
  • Georgian Bay
  • Georgian Bay

More Historic Weather Station data

Upgrade to MSW Pro to gain access to the past 30 days of data for over 8000 Wavebouys and Weather Stations around the globe.

Join Pro

Comparision Forecast

View Surf forecast
   
Sun 08/02 8:00pm 2ft 4s 11 16 mph 1001.6mb 64f 65f
7:00pm 2ft 4s 11 13 mph 1003.1mb 64f 65f
6:00pm 2.5ft 4s 16 18 mph 1002.2mb 64f 65f
5:00pm 3ft 4s 13 16 mph 1003mb 65f 65f
4:00pm 3.5ft 5s 18 22 mph 1003.9mb 65f 65f
3:00pm 3.5ft 5s 18 25 mph 1003.8mb 64f 65f
2:00pm 4ft 5s 20 25 mph 1004.3mb 64f 64f
1:00pm 4ft 4s 18 22 mph 1004.1mb 64f 64f
12:00pm 2ft 4s 34 45 mph 1005.8mb 65f 63f
11:00am 2ft 4s 13 16 mph 1005.6mb 65f 68f
10:00am 1.6ft 4s 13 16 mph 1006.6mb 65f 68f
9:00am 2ft 4s 11 13 mph 1006.3mb 65f 67f
8:00am 2ft 4s 16 18 mph 1006.7mb 65f 67f
7:00am 2ft 3s 16 18 mph 1007.4mb 65f 66f
6:00am 1.6ft 3s 16 18 mph 1007.3mb 65f 67f
5:00am 1.3ft 3s 16 18 mph 1007.4mb 65f 66f
4:00am 1.3ft 3s 13 16 mph 1007.3mb 65f 66f
3:00am 1ft 3s 11 13 mph 1008mb 65f 65f
2:00am 1ft 3s 9
mph
1008.7mb 65f 65f
1:00am 1.3ft 3s 11 13 mph 1008.8mb 65f 65f
12:00am 1.3ft 3s 11 13 mph 1009.2mb 65f 65f
Sat 08/01 11:00pm 1.3ft 4s 11 13 mph 1009.1mb 65f 65f
10:00pm 2ft 4s 13 16 mph 1009.3mb 65f 65f
9:00pm 2ft 4s 13 16 mph 1009.3mb 65f 66f
8:00pm 2.5ft 4s 16 18 mph 1008.8mb 65f 67f
7:00pm 2.5ft 4s 18 22 mph 1008.3mb 65f 67f
6:00pm 2.5ft 4s 18 20 mph 1008.1mb 65f 66f
5:00pm 2.5ft 4s 20 25 mph 1008.3mb 65f 66f
4:00pm 2.5ft 4s 20 22 mph 1008.6mb 65f 65f
3:00pm 2.5ft 4s 20 25 mph 1008.7mb 65f 65f
2:00pm 2.5ft 4s 20 22 mph 1008.9mb 65f 65f
1:00pm 2.5ft 4s 22 25 mph 1009.4mb 65f 65f
12:00pm 1.6ft 3s 20 25 mph 1009.6mb 65f 64f
11:00am 1.6ft 4s 13 16 mph 1009.9mb 65f 64f
10:00am 2ft 4s 11
mph
1009.8mb 65f 64f
8:00am 2.5ft 4s 13 16 mph 1009.7mb 65f 63f
7:00am 2.5ft 4s 18 20 mph 1009.3mb 65f 63f
6:00am  -   -  18
mph
1009mb - 63f
5:00am 2.5ft 4s 16 18 mph 1008.9mb 65f 62f
4:00am 2.5ft 4s 16 18 mph 1008.4mb 65f 62f
3:00am 2.5ft 4s 18 20 mph 1008.3mb 65f 63f
2:00am 2.5ft 4s 20 22 mph 1008.1mb 65f 63f
1:00am 2.5ft 4s 18 22 mph 1008mb 65f 63f
12:00am 2.5ft 4s 20 25 mph 1007.9mb 65f 64f
Fri 07/31 11:00pm 2ft 4s 18 20 mph 1007.9mb 65f 65f
10:00pm 2.5ft 4s 11 13 mph 1008.2mb 65f 65f
9:00pm 2.5ft 4s 11 13 mph 1008mb 65f 66f
8:00pm 3ft 4s 16 20 mph 1007.3mb 65f 66f
7:00pm 3ft 4s 20 25 mph 1006.5mb 65f 67f
5:00pm 3ft 4s 20 22 mph 1006.3mb 65f 67f
4:00pm 3ft 4s 18 22 mph 1006.5mb 65f 67f
3:00pm 3ft 4s 20 25 mph 1006.5mb 65f 67f
2:00pm 2.5ft 4s 22 27 mph 1007mb 65f 66f
1:00pm 2.5ft 4s 20 22 mph 1007.1mb 65f 66f
12:00pm 2.5ft 4s 18 20 mph 1008.1mb 65f 65f
11:00am 2.5ft 4s 16 18 mph 1008.5mb 65f 65f
10:00am 2.5ft 4s 16 20 mph 1008.6mb 65f 65f
9:00am 2.5ft 4s 18 20 mph 1008.5mb 65f 66f
8:00am 2.5ft 4s 16 20 mph 1008.8mb 65f 66f
7:00am 2.5ft 4s 18 22 mph 1009.2mb 65f 66f
6:00am 2.5ft 3s 18 20 mph 1009.3mb 65f 66f
5:00am 2ft 4s 18 20 mph 1009.4mb 65f 65f
4:00am 1.6ft 3s 18 20 mph 1009.7mb 65f 66f
3:00am 1.3ft 3s 16 18 mph 1010mb 65f 65f
2:00am 1.6ft 4s 13 16 mph 1010mb 65f 66f
1:00am 2ft 4s 11 13 mph 1010.3mb 65f 65f
12:00am 2.5ft 4s 16 18 mph 1010.6mb 65f 66f
Thu 07/30 11:00pm  -   -  18
mph
1010.6mb 65f 66f
9:00pm 3.5ft 5s 18 25 mph 1010.2mb 65f 67f
8:00pm 3.5ft 5s 22 27 mph 1009.5mb 65f 68f
7:00pm 3ft 5s 18 20 mph 1009.2mb 65f 68f
6:00pm 3ft 4s 16 18 mph 1009.3mb 65f 68f
5:00pm 2.5ft 4s 18 22 mph 1009.1mb 66f 69f
4:00pm 2.5ft 4s 13 16 mph 1009.2mb 66f 69f
3:00pm 3ft 4s 16 18 mph 1008.8mb 66f 68f
2:00pm 3.5ft 4s 22 27 mph 1008.4mb 66f 68f
1:00pm 3ft 4s 25 29 mph 1007.9mb 66f 69f
12:00pm 3ft 4s 22 27 mph 1008.2mb 66f 68f
11:00am 3ft 4s 18 22 mph 1008.1mb 66f 67f
10:00am 3ft 4s 18 20 mph 1008.2mb 66f 67f
9:00am 2.5ft 3s 20 25 mph 1008.2mb 66f 68f
8:00am 1.3ft 3s 18 22 mph 1008.2mb 66f 68f
7:00am 1ft 3s 16 20 mph 1008.4mb 66f 69f
6:00am 0.7ft 3s 13
mph
1008.6mb 66f 68f
5:00am 0.7ft 3s 9 11 mph 1008.5mb 66f 67f
4:00am 0.7ft 2s 9 11 mph 1008.3mb 66f 67f
3:00am 0.7ft 3s 9
mph
1008.4mb 66f 67f